Chum Phae, Thailand
Current Conditions -  °F | °C
As of 4:00 AM on Sunday 21 Dec 2014 (Local Time) from VTUK Reporting Station
Clear Clear  
Wind Chill: 63°   Ceiling: Unl
Heat Index: 63°   Visibility: 5mi
Dew Point: 54°   Wind: 3mph
Humidity: 72%   Direction: 10°N
Pressure: 29.94"   Gusts: NA
Location:  16.54°N, 102.11°E
Report Text: VTUK 202100Z 01003KT 8000 NSC 17/12 Q1014 A2994 NOSIG
Loading
Personal Weather Stations






























Interactive Weather Map New forecast layout! Learn more

10-Day Weather Forecast

Advertisements
Track Severe Weather on mobile